Impacts METAR Board
IDs:

KCLT - Charlotte/Douglas In, NC, US

Updated at: 0300 UTC 16 Aug 2018
Potential Impact None Slight Moderate High
Time 15/15Z 15/16Z 15/17Z 15/18Z 15/19Z 15/20Z 15/21Z 15/22Z 15/23Z 16/00Z 16/01Z 16/02Z 16/03Z
Temp84 87 88 89 88 90 87 86 87 84 77 79 73
Dewpt68 70 70 67 68 67 69 69 70 70 71 71 71
Altim30.12 30.12 30.11 30.10 30.09 30.07 30.07 30.07 30.07 30.09 30.10 30.11 30.12
VIS8 8 9 9 9 9 10 10 10 10 10 10 10
CIG-- -- -- -- 250 250 250 250 250 250 250 250 --
CoverSCTSCTSCTSCTBKNBKNBKNBKNBKNBKNBKNBKNSCT
FltCatVFRVFRVFRVFRVFRVFRVFRVFRVFRVFRVFRVFRVFR
WX--------------------------
WDir0025026000260300320320000
WSpd4 3 4 5 4 4 6 5 4 3 0 0 0
WGst-- -- -- -- -- -- -- -- -- -- -- -- --
Raw hourly METARs
KCLT 151452Z VRB04KT 8SM FEW095 SCT250 29/20 A3012 RMK AO2 SLP190 T02890200 51014
KCLT 151552Z VRB03KT 8SM FEW040 FEW100 SCT250 31/21 A3012 RMK AO2 SLP188 T03060211
KCLT 151652Z 25004KT 9SM SCT042 SCT250 31/21 A3011 RMK AO2 SLP186 T03110211
KCLT 151752Z 26005KT 9SM SCT043TCU SCT250 32/19 A3010 RMK AO2 SLP183 TCU N-E-S T03170194 10322 20233 58007
KCLT 151852Z VRB04KT 9SM SCT044 SCT100 BKN250 31/20 A3009 RMK AO2 SLP179 TCU DSNT NE-E T03110200
KCLT 151952Z VRB04KT 9SM FEW045 SCT100 BKN250 32/19 A3007 RMK AO2 SLP173 T03220194
KCLT 152052Z 26006KT 10SM FEW050 BKN250 31/21 A3007 RMK AO2 SLP172 T03060206 56011
KCLT 152152Z 30005KT 10SM FEW055 BKN250 30/21 A3007 RMK AO2 SLP172 TCU DSNT E-SE T03000206
KCLT 152252Z 32004KT 10SM FEW055 BKN250 31/21 A3007 RMK AO2 SLP174 TCU DSNT E AND SE T03060211
KCLT 152352Z 32003KT 10SM FEW055 SCT200 BKN250 29/21 A3009 RMK AO2 SLP179 T02890211 10328 20289 53007
KCLT 160052Z 00000KT 10SM FEW100 BKN250 25/22 A3010 RMK AO2 SLP182 T02500217
KCLT 160152Z 00000KT 10SM FEW100 BKN250 26/22 A3011 RMK AO2 SLP187 T02610217
KCLT 160252Z 00000KT 10SM SCT250 23/22 A3012 RMK AO2 SLP190 T02280217 51010



Page loaded:  03:07 UTC  |   08:07 PM Pacific  |   09:07 PM Mountain  |   10:07 PM Central  |   11:07 PM Eastern

 

ADVISORIES

FORECASTS

FORECASTS

OBSERVATIONS

USER TOOLS

ABOUT US